Time,TemperatureF,DewpointF,PressureIn,WindDirection,WindDirectionDegrees,WindSpeedMPH,WindSpeedGustMPH,Humidity,HourlyPrecipIn,Conditions,Clouds,dailyrainin,SoftwareType,DateUTC
2013-05-29 00:01:00,48.2,46.8,29.57,East,101,0.0,0.0,95,0.00,RA,,0.00,WeatherDisplay:10.37,2013-05-28 23:01:00,
2013-05-29 00:06:00,48.1,46.7,29.57,East,101,0.0,0.0,95,0.00,RA,,0.00,WeatherDisplay:10.37,2013-05-28 23:06:00,
2013-05-29 00:11:00,48.1,46.7,29.57,East,100,0.0,0.0,95,0.00,CLR,,0.00,WeatherDisplay:10.37,2013-05-28 23:11:00,
2013-05-29 00:16:00,48.1,46.7,29.57,East,101,0.0,0.0,95,0.00,CLR,,0.00,WeatherDisplay:10.37,2013-05-28 23:16:00,
2013-05-29 00:21:00,48.1,46.7,29.57,East,101,0.0,0.0,95,0.00,CLR,,0.00,WeatherDisplay:10.37,2013-05-28 23:21:00,
2013-05-29 00:26:00,48.1,46.7,29.57,East,101,0.0,0.0,95,0.00,CLR,,0.00,WeatherDisplay:10.37,2013-05-28 23:26:00,
2013-05-29 00:31:00,48.0,46.6,29.57,East,100,0.0,0.0,95,0.00,CLR,,0.00,WeatherDisplay:10.37,2013-05-28 23:31:00,
2013-05-29 00:36:00,48.0,46.9,29.56,East,101,0.0,0.0,96,0.00,CLR,,0.00,WeatherDisplay:10.37,2013-05-28 23:36:00,
2013-05-29 00:41:00,48.0,46.9,29.56,East,101,0.0,0.0,96,0.00,CLR,,0.00,WeatherDisplay:10.37,2013-05-28 23:41:00,
2013-05-29 00:46:00,47.9,46.8,29.56,East,101,0.0,0.0,96,0.00,CLR,,0.00,WeatherDisplay:10.37,2013-05-28 23:46:00,
2013-05-29 00:51:00,47.9,46.8,29.56,East,98,0.0,0.0,96,0.00,CLR,,0.00,WeatherDisplay:10.37,2013-05-28 23:51:00,
2013-05-29 00:56:00,47.9,46.8,29.56,East,98,0.0,0.0,96,0.00,CLR,,0.00,WeatherDisplay:10.37,2013-05-28 23:56:00,
2013-05-29 01:01:00,47.8,46.7,29.56,East,99,0.0,0.0,96,0.00,CLR,,0.00,WeatherDisplay:10.37,2013-05-29 00:01:00,
2013-05-29 01:06:00,47.8,46.7,29.56,East,101,0.0,0.0,96,0.00,CLR,,0.00,WeatherDisplay:10.37,2013-05-29 00:06:00,
2013-05-29 01:11:00,47.7,46.6,29.56,SSW,203,0.0,0.0,96,0.00,CLR,,0.00,WeatherDisplay:10.37,2013-05-29 00:11:00,
2013-05-29 01:16:00,47.7,46.6,29.56,ESE,114,0.0,0.0,96,0.00,CLR,,0.00,WeatherDisplay:10.37,2013-05-29 00:16:00,
2013-05-29 01:21:00,47.6,46.5,29.56,ESE,114,0.0,0.0,96,0.00,CLR,,0.00,WeatherDisplay:10.37,2013-05-29 00:21:00,
2013-05-29 01:26:00,47.5,46.4,29.56,ESE,115,0.0,0.0,96,0.00,CLR,,0.00,WeatherDisplay:10.37,2013-05-29 00:26:00,
2013-05-29 01:31:00,47.5,46.4,29.56,ESE,115,0.0,0.0,96,0.00,CLR,,0.00,WeatherDisplay:10.37,2013-05-29 00:31:00,
2013-05-29 01:36:00,47.5,46.4,29.56,ESE,115,0.0,0.0,96,0.00,CLR,,0.00,WeatherDisplay:10.37,2013-05-29 00:36:00,
2013-05-29 01:41:00,47.5,46.4,29.56,ESE,115,0.0,0.0,96,0.00,CLR,,0.00,WeatherDisplay:10.37,2013-05-29 00:41:00,
2013-05-29 01:46:00,47.5,46.4,29.56,WSW,245,0.0,0.0,96,0.00,CLR,,0.00,WeatherDisplay:10.37,2013-05-29 00:46:00,
2013-05-29 01:51:00,47.5,46.4,29.56,SE,146,0.0,0.0,96,0.00,CLR,,0.00,WeatherDisplay:10.37,2013-05-29 00:51:00,
2013-05-29 01:56:00,47.6,46.5,29.57,West,276,0.0,0.0,96,0.00,CLR,,0.00,WeatherDisplay:10.37,2013-05-29 00:56:00,
2013-05-29 02:01:00,47.5,46.1,29.56,West,276,0.0,0.0,95,0.00,CLR,,0.00,WeatherDisplay:10.37,2013-05-29 01:01:00,
2013-05-29 02:06:00,47.5,46.1,29.57,West,276,0.0,0.0,95,0.00,CLR,,0.00,WeatherDisplay:10.37,2013-05-29 01:06:00,
2013-05-29 02:11:00,47.5,46.1,29.57,SW,226,0.0,0.0,95,0.00,CLR,,0.00,WeatherDisplay:10.37,2013-05-29 01:11:00,
2013-05-29 02:16:00,47.5,46.1,29.57,SW,225,0.0,0.0,95,0.00,CLR,,0.00,WeatherDisplay:10.37,2013-05-29 01:16:00,
2013-05-29 02:21:00,47.5,46.1,29.56,SW,225,0.0,0.0,95,0.00,CLR,,0.00,WeatherDisplay:10.37,2013-05-29 01:21:00,
2013-05-29 02:26:00,47.5,46.1,29.57,West,260,0.0,0.0,95,0.00,CLR,,0.00,WeatherDisplay:10.37,2013-05-29 01:26:00,
2013-05-29 02:31:00,47.5,46.1,29.57,West,260,0.0,0.0,95,0.00,CLR,,0.00,WeatherDisplay:10.37,2013-05-29 01:31:00,
2013-05-29 02:36:00,47.5,46.1,29.57,West,260,0.0,0.0,95,0.00,CLR,,0.00,WeatherDisplay:10.37,2013-05-29 01:36:00,
2013-05-29 02:41:00,47.5,45.9,29.57,West,261,0.0,0.0,94,0.00,CLR,,0.00,WeatherDisplay:10.37,2013-05-29 01:41:00,
2013-05-29 02:46:00,47.5,45.9,29.57,West,260,0.0,0.0,94,0.00,CLR,,0.00,WeatherDisplay:10.37,2013-05-29 01:46:00,
2013-05-29 02:51:00,47.4,45.8,29.57,West,260,0.0,0.0,94,0.00,CLR,,0.00,WeatherDisplay:10.37,2013-05-29 01:51:00,
2013-05-29 02:56:00,47.3,45.7,29.57,West,260,0.0,0.0,94,0.00,CLR,,0.00,WeatherDisplay:10.37,2013-05-29 01:56:00,
2013-05-29 03:01:00,47.3,45.9,29.57,West,260,0.0,0.0,95,0.00,CLR,,0.00,WeatherDisplay:10.37,2013-05-29 02:01:00,
2013-05-29 03:06:00,47.2,45.8,29.57,West,260,0.0,0.0,95,0.00,CLR,,0.00,WeatherDisplay:10.37,2013-05-29 02:06:00,
2013-05-29 03:11:00,47.2,45.8,29.57,West,260,0.0,0.0,95,0.00,CLR,,0.00,WeatherDisplay:10.37,2013-05-29 02:11:00,
2013-05-29 03:16:00,47.2,45.8,29.58,West,260,0.0,0.0,95,0.00,CLR,,0.00,WeatherDisplay:10.37,2013-05-29 02:16:00,
2013-05-29 03:21:00,47.2,45.8,29.58,West,260,0.0,0.0,95,0.00,CLR,,0.00,WeatherDisplay:10.37,2013-05-29 02:21:00,
2013-05-29 03:26:00,47.2,45.8,29.58,West,260,0.0,0.0,95,0.00,CLR,,0.00,WeatherDisplay:10.37,2013-05-29 02:26:00,
2013-05-29 03:31:00,47.2,45.8,29.58,West,259,0.0,0.0,95,0.00,CLR,,0.00,WeatherDisplay:10.37,2013-05-29 02:31:00,
2013-05-29 03:36:00,47.1,45.7,29.58,SE,131,0.0,0.0,95,0.00,CLR,,0.00,WeatherDisplay:10.37,2013-05-29 02:36:00,
2013-05-29 03:41:00,47.1,45.7,29.58,SE,131,0.0,0.0,95,0.00,CLR,,0.00,WeatherDisplay:10.37,2013-05-29 02:41:00,
2013-05-29 03:46:00,47.0,45.6,29.58,SE,131,0.0,0.0,95,0.00,CLR,,0.00,WeatherDisplay:10.37,2013-05-29 02:46:00,
2013-05-29 03:51:00,47.0,45.6,29.58,SE,133,0.0,0.0,95,0.00,CLR,,0.00,WeatherDisplay:10.37,2013-05-29 02:51:00,
2013-05-29 03:56:00,46.9,45.5,29.58,SE,132,0.0,0.0,95,0.00,CLR,,0.00,WeatherDisplay:10.37,2013-05-29 02:56:00,
2013-05-29 04:01:00,46.8,45.4,29.58,SE,132,0.0,0.0,95,0.00,CLR,,0.00,WeatherDisplay:10.37,2013-05-29 03:01:00,
2013-05-29 04:06:00,46.8,45.4,29.58,SE,132,0.0,0.0,95,0.00,CLR,,0.00,WeatherDisplay:10.37,2013-05-29 03:06:00,
2013-05-29 04:11:00,46.7,45.3,29.57,SE,132,0.0,0.0,95,0.00,CLR,,0.00,WeatherDisplay:10.37,2013-05-29 03:11:00,
2013-05-29 04:16:00,46.7,45.3,29.57,SE,132,0.0,0.0,95,0.00,CLR,,0.00,WeatherDisplay:10.37,2013-05-29 03:16:00,
2013-05-29 04:21:00,46.5,45.1,29.57,SE,132,0.0,0.0,95,0.00,CLR,,0.00,WeatherDisplay:10.37,2013-05-29 03:21:00,
2013-05-29 04:26:00,46.4,45.0,29.57,SE,132,0.0,0.0,95,0.00,CLR,,0.00,WeatherDisplay:10.37,2013-05-29 03:26:00,
2013-05-29 04:31:00,46.3,44.9,29.57,SE,133,0.0,0.0,95,0.00,CLR,,0.00,WeatherDisplay:10.37,2013-05-29 03:31:00,
2013-05-29 04:36:00,46.2,44.8,29.58,SE,133,0.0,0.0,95,0.00,CLR,,0.00,WeatherDisplay:10.37,2013-05-29 03:36:00,
2013-05-29 04:41:00,46.2,44.8,29.58,SE,133,0.0,0.0,95,0.00,CLR,,0.00,WeatherDisplay:10.37,2013-05-29 03:41:00,
2013-05-29 04:46:00,46.2,45.1,29.58,SE,132,0.0,0.0,96,0.00,CLR,,0.00,WeatherDisplay:10.37,2013-05-29 03:46:00,
2013-05-29 04:51:00,46.1,44.7,29.58,SE,132,0.0,0.0,95,0.00,CLR,,0.00,WeatherDisplay:10.37,2013-05-29 03:51:00,
2013-05-29 04:56:00,46.1,44.7,29.58,SE,132,0.0,0.0,95,0.00,CLR,,0.00,WeatherDisplay:10.37,2013-05-29 03:56:00,
2013-05-29 05:01:00,46.0,44.9,29.58,SE,133,0.0,0.0,96,0.00,CLR,,0.00,WeatherDisplay:10.37,2013-05-29 04:01:00,
2013-05-29 05:06:00,45.9,44.8,29.58,SE,132,0.0,0.0,96,0.00,CLR,,0.00,WeatherDisplay:10.37,2013-05-29 04:06:00,
2013-05-29 05:11:00,45.8,44.7,29.58,SE,133,0.0,0.0,96,0.00,CLR,,0.00,WeatherDisplay:10.37,2013-05-29 04:11:00,
2013-05-29 05:16:00,45.6,44.3,29.59,SE,133,0.0,0.0,95,0.00,CLR,,0.00,WeatherDisplay:10.37,2013-05-29 04:16:00,
2013-05-29 05:21:00,45.4,44.1,29.59,SE,132,0.0,0.0,95,0.00,CLR,,0.00,WeatherDisplay:10.37,2013-05-29 04:21:00,
2013-05-29 05:26:00,45.2,43.9,29.59,SE,132,0.0,0.0,95,0.00,CLR,,0.00,WeatherDisplay:10.37,2013-05-29 04:26:00,
2013-05-29 05:31:00,45.0,43.7,29.59,SE,132,0.0,0.0,95,0.00,CLR,,0.00,WeatherDisplay:10.37,2013-05-29 04:31:00,
2013-05-29 05:36:00,44.8,43.5,29.59,SE,132,0.0,0.0,95,0.00,CLR,,0.00,WeatherDisplay:10.37,2013-05-29 04:36:00,
2013-05-29 05:41:00,44.6,43.3,29.59,SE,132,0.0,0.0,95,0.00,CLR,,0.00,WeatherDisplay:10.37,2013-05-29 04:41:00,
2013-05-29 05:46:00,44.5,43.4,29.59,SE,132,0.0,0.0,96,0.00,CLR,,0.00,WeatherDisplay:10.37,2013-05-29 04:46:00,
2013-05-29 05:51:00,44.4,43.3,29.59,SE,132,0.0,0.0,96,0.00,CLR,,0.00,WeatherDisplay:10.37,2013-05-29 04:51:00,
2013-05-29 05:56:00,44.4,43.3,29.59,SE,132,0.0,0.0,96,0.00,CLR,,0.00,WeatherDisplay:10.37,2013-05-29 04:56:00,
2013-05-29 06:01:00,44.8,44.0,29.59,East,79,0.0,0.0,97,0.00,CLR,,0.00,WeatherDisplay:10.37,2013-05-29 05:01:00,
2013-05-29 06:06:00,45.2,44.4,29.59,SE,124,0.0,0.0,97,0.00,CLR,,0.00,WeatherDisplay:10.37,2013-05-29 05:06:00,
2013-05-29 06:11:00,45.3,44.5,29.59,SE,124,0.0,0.0,97,0.00,CLR,,0.00,WeatherDisplay:10.37,2013-05-29 05:11:00,
2013-05-29 06:16:00,45.6,44.8,29.59,WNW,295,0.0,0.0,97,0.00,CLR,,0.00,WeatherDisplay:10.37,2013-05-29 05:16:00,
2013-05-29 06:21:00,45.7,44.9,29.59,WSW,250,0.0,0.0,97,0.00,CLR,,0.00,WeatherDisplay:10.37,2013-05-29 05:21:00,
2013-05-29 06:26:00,45.8,45.0,29.59,WNW,283,2.3,2.3,97,0.00,CLR,,0.00,WeatherDisplay:10.37,2013-05-29 05:26:00,
2013-05-29 06:31:00,45.9,45.1,29.59,West,265,0.0,0.0,97,0.00,CLR,,0.00,WeatherDisplay:10.37,2013-05-29 05:31:00,
2013-05-29 06:36:00,46.1,45.3,29.59,NW,305,0.0,0.0,97,0.00,CLR,,0.00,WeatherDisplay:10.37,2013-05-29 05:36:00,
2013-05-29 06:41:00,46.3,45.2,29.60,NW,305,0.0,0.0,96,0.00,CLR,,0.00,WeatherDisplay:10.37,2013-05-29 05:41:00,
2013-05-29 06:46:00,46.4,45.6,29.60,WNW,302,0.0,0.0,97,0.00,CLR,,0.00,WeatherDisplay:10.37,2013-05-29 05:46:00,
2013-05-29 06:51:00,46.5,45.4,29.60,WNW,302,0.0,0.0,96,0.00,CLR,,0.00,WeatherDisplay:10.37,2013-05-29 05:51:00,
2013-05-29 06:56:00,46.5,45.4,29.60,WNW,302,0.0,0.0,96,0.00,CLR,,0.00,WeatherDisplay:10.37,2013-05-29 05:56:00,
2013-05-29 07:01:00,46.6,45.5,29.61,WNW,302,0.0,0.0,96,0.00,CLR,,0.00,WeatherDisplay:10.37,2013-05-29 06:01:00,
2013-05-29 07:06:00,46.7,45.6,29.61,WNW,295,0.0,0.0,96,0.00,CLR,,0.00,WeatherDisplay:10.37,2013-05-29 06:06:00,
2013-05-29 07:11:00,46.9,45.8,29.61,WNW,295,0.0,0.1,96,0.00,CLR,,0.00,WeatherDisplay:10.37,2013-05-29 06:11:00,
2013-05-29 07:16:00,47.1,45.7,29.61,NNE,16,1.1,1.1,95,0.00,CLR,,0.00,WeatherDisplay:10.37,2013-05-29 06:16:00,
2013-05-29 07:21:00,47.3,45.9,29.61,North,349,0.0,0.0,95,0.00,CLR,,0.00,WeatherDisplay:10.37,2013-05-29 06:21:00,
2013-05-29 07:26:00,47.5,46.1,29.61,WNW,290,0.0,0.0,95,0.00,CLR,,0.00,WeatherDisplay:10.37,2013-05-29 06:26:00,
2013-05-29 07:31:00,47.5,45.9,29.61,WNW,292,0.0,0.0,94,0.00,CLR,,0.00,WeatherDisplay:10.37,2013-05-29 06:31:00,
2013-05-29 07:36:00,47.7,45.8,29.61,WNW,294,0.0,0.0,93,0.00,CLR,,0.00,WeatherDisplay:10.37,2013-05-29 06:36:00,
2013-05-29 07:41:00,47.9,46.0,29.61,West,274,0.0,0.2,93,0.00,CLR,,0.00,WeatherDisplay:10.37,2013-05-29 06:41:00,
2013-05-29 07:46:00,48.0,46.1,29.61,WNW,288,0.0,0.0,93,0.00,CLR,,0.00,WeatherDisplay:10.37,2013-05-29 06:46:00,
2013-05-29 07:51:00,48.1,45.9,29.61,West,278,0.0,0.0,92,0.00,CLR,,0.00,WeatherDisplay:10.37,2013-05-29 06:51:00,
2013-05-29 07:56:00,48.2,46.0,29.62,WNW,284,0.0,0.0,92,0.00,CLR,,0.00,WeatherDisplay:10.37,2013-05-29 06:56:00,
2013-05-29 08:01:00,48.4,46.2,29.62,WSW,246,0.0,0.0,92,0.00,CLR,,0.00,WeatherDisplay:10.37,2013-05-29 07:01:00,
2013-05-29 08:06:00,48.6,46.1,29.62,West,270,0.0,0.0,91,0.00,CLR,,0.00,WeatherDisplay:10.37,2013-05-29 07:06:00,
2013-05-29 08:11:00,48.7,46.2,29.62,WNW,290,0.0,0.0,91,0.00,CLR,,0.00,WeatherDisplay:10.37,2013-05-29 07:11:00,
2013-05-29 08:16:00,49.0,46.2,29.62,West,280,0.0,0.0,90,0.00,CLR,,0.00,WeatherDisplay:10.37,2013-05-29 07:16:00,
2013-05-29 08:21:00,49.2,46.1,29.62,North,354,0.0,0.0,89,0.00,CLR,,0.00,WeatherDisplay:10.37,2013-05-29 07:21:00,
2013-05-29 08:26:00,49.6,46.2,29.62,WSW,257,0.0,0.0,88,0.00,CLR,,0.00,WeatherDisplay:10.37,2013-05-29 07:26:00,
2013-05-29 08:31:00,50.0,46.6,29.62,WSW,257,0.0,0.0,88,0.00,CLR,,0.00,WeatherDisplay:10.37,2013-05-29 07:31:00,
2013-05-29 08:36:00,50.4,47.0,29.63,West,259,0.0,0.0,88,0.00,CLR,,0.00,WeatherDisplay:10.37,2013-05-29 07:36:00,
2013-05-29 08:41:00,50.5,46.5,29.63,West,264,3.5,3.5,86,0.00,CLR,,0.00,WeatherDisplay:10.37,2013-05-29 07:41:00,
2013-05-29 08:46:00,50.8,46.5,29.63,SSW,211,2.3,2.3,85,0.00,CLR,,0.00,WeatherDisplay:10.37,2013-05-29 07:46:00,
2013-05-29 08:51:00,51.2,46.8,29.63,WNW,295,1.1,1.1,85,0.00,CLR,,0.00,WeatherDisplay:10.37,2013-05-29 07:51:00,
2013-05-29 08:56:00,51.6,46.6,29.63,WSW,256,2.0,2.0,83,0.00,CLR,,0.00,WeatherDisplay:10.37,2013-05-29 07:56:00,
2013-05-29 09:01:00,51.9,46.6,29.64,West,259,0.0,0.0,82,0.00,CLR,,0.00,WeatherDisplay:10.37,2013-05-29 08:01:00,
2013-05-29 09:06:00,52.4,46.7,29.64,SSW,203,1.1,1.1,81,0.00,CLR,,0.00,WeatherDisplay:10.37,2013-05-29 08:06:00,
2013-05-29 09:11:00,52.6,46.6,29.64,WNW,284,3.5,3.5,80,0.00,CLR,,0.00,WeatherDisplay:10.37,2013-05-29 08:11:00,
2013-05-29 09:16:00,53.0,48.0,29.64,WSW,257,2.0,2.0,83,0.00,CLR,,0.00,WeatherDisplay:10.37,2013-05-29 08:16:00,
2013-05-29 09:21:00,53.3,47.6,29.64,WSW,243,1.1,1.1,81,0.00,CLR,,0.00,WeatherDisplay:10.37,2013-05-29 08:21:00,
2013-05-29 09:26:00,53.2,46.5,29.64,West,277,2.3,2.3,78,0.00,CLR,,0.00,WeatherDisplay:10.37,2013-05-29 08:26:00,
2013-05-29 09:31:00,53.6,47.9,29.64,West,273,1.1,0.0,81,0.00,CLR,,0.00,WeatherDisplay:10.37,2013-05-29 08:31:00,
2013-05-29 09:36:00,54.2,47.8,29.64,West,278,1.0,0.0,79,0.00,CLR,,0.00,WeatherDisplay:10.37,2013-05-29 08:36:00,
2013-05-29 09:41:00,54.0,46.6,29.64,West,273,3.5,3.5,76,0.00,CLR,,0.00,WeatherDisplay:10.37,2013-05-29 08:41:00,
2013-05-29 09:46:00,54.1,48.1,29.64,West,274,2.3,2.3,80,0.00,CLR,,0.00,WeatherDisplay:10.37,2013-05-29 08:46:00,
2013-05-29 09:51:00,54.2,47.5,29.63,West,277,3.5,3.5,78,0.00,CLR,,0.00,WeatherDisplay:10.37,2013-05-29 08:51:00,
2013-05-29 09:56:00,54.1,48.1,29.64,NW,308,2.3,2.3,80,0.00,CLR,,0.00,WeatherDisplay:10.37,2013-05-29 08:56:00,
2013-05-29 10:01:00,54.4,48.7,29.64,SW,234,3.5,3.5,81,0.00,CLR,,0.00,WeatherDisplay:10.37,2013-05-29 09:01:00,
2013-05-29 10:06:00,54.5,48.8,29.64,WSW,256,1.1,1.1,81,0.00,CLR,,0.00,WeatherDisplay:10.37,2013-05-29 09:06:00,
2013-05-29 10:11:00,54.6,48.9,29.64,ESE,117,0.0,0.0,81,0.00,CLR,,0.00,WeatherDisplay:10.37,2013-05-29 09:11:00,
2013-05-29 10:16:00,54.7,48.6,29.64,ESE,114,0.0,0.0,80,0.00,CLR,,0.00,WeatherDisplay:10.37,2013-05-29 09:16:00,
2013-05-29 10:21:00,54.7,48.6,29.64,WNW,284,0.0,0.0,80,0.00,CLR,,0.00,WeatherDisplay:10.37,2013-05-29 09:21:00,
2013-05-29 10:26:00,54.9,49.2,29.64,SW,218,0.0,0.0,81,0.00,CLR,,0.00,WeatherDisplay:10.37,2013-05-29 09:26:00,
2013-05-29 10:31:00,55.1,49.0,29.64,West,269,0.0,0.0,80,0.00,CLR,,0.00,WeatherDisplay:10.37,2013-05-29 09:31:00,
2013-05-29 10:36:00,55.1,48.7,29.65,West,278,2.3,2.3,79,0.00,CLR,,0.00,WeatherDisplay:10.37,2013-05-29 09:36:00,
2013-05-29 10:41:00,55.0,49.3,29.65,West,269,2.0,2.0,81,0.00,CLR,,0.00,WeatherDisplay:10.37,2013-05-29 09:41:00,
2013-05-29 10:46:00,55.3,49.2,29.65,WNW,284,2.3,2.3,80,0.00,CLR,,0.00,WeatherDisplay:10.37,2013-05-29 09:46:00,
2013-05-29 10:51:00,55.7,49.3,29.65,North,350,2.3,2.3,79,0.00,CLR,,0.00,WeatherDisplay:10.37,2013-05-29 09:51:00,
2013-05-29 10:56:00,56.3,49.9,29.65,WNW,282,1.1,1.1,79,0.00,CLR,,0.00,WeatherDisplay:10.37,2013-05-29 09:56:00,
2013-05-29 11:01:00,56.8,49.3,29.65,WSW,253,0.0,0.0,76,0.00,CLR,,0.00,WeatherDisplay:10.37,2013-05-29 10:01:00,
2013-05-29 11:06:00,57.3,50.5,29.65,NW,314,0.0,0.0,78,0.00,CLR,,0.00,WeatherDisplay:10.37,2013-05-29 10:06:00,
2013-05-29 11:11:00,57.5,49.3,29.65,West,277,2.3,2.3,74,0.00,CLR,,0.00,WeatherDisplay:10.37,2013-05-29 10:11:00,
2013-05-29 11:16:00,57.3,49.8,29.65,West,262,1.0,0.0,76,0.00,CLR,,0.00,WeatherDisplay:10.37,2013-05-29 10:16:00,
2013-05-29 11:21:00,57.1,50.0,29.65,West,277,3.5,3.5,77,0.00,CLR,,0.00,WeatherDisplay:10.37,2013-05-29 10:21:00,
2013-05-29 11:26:00,57.0,50.2,29.65,West,277,2.0,2.0,78,0.00,CLR,,0.00,WeatherDisplay:10.37,2013-05-29 10:26:00,
2013-05-29 11:31:00,56.5,49.4,29.65,West,273,1.1,1.1,77,0.00,CLR,,0.00,WeatherDisplay:10.37,2013-05-29 10:31:00,
2013-05-29 11:36:00,56.1,49.7,29.65,ESE,103,0.0,0.0,79,0.00,CLR,,0.00,WeatherDisplay:10.37,2013-05-29 10:36:00,
2013-05-29 11:41:00,55.7,49.6,29.65,WSW,243,3.5,3.5,80,0.00,CLR,,0.00,WeatherDisplay:10.37,2013-05-29 10:41:00,
2013-05-29 11:46:00,55.4,49.7,29.66,East,93,0.0,0.0,81,0.00,CLR,,0.00,WeatherDisplay:10.37,2013-05-29 10:46:00,
2013-05-29 11:51:00,54.9,49.5,29.66,NNW,335,3.5,3.5,82,0.00,CLR,,0.00,WeatherDisplay:10.37,2013-05-29 10:51:00,
2013-05-29 11:56:00,54.4,49.3,29.66,NE,54,1.1,1.1,83,0.00,CLR,,0.00,WeatherDisplay:10.37,2013-05-29 10:56:00,
2013-05-29 12:01:00,53.9,49.5,29.66,NNW,348,2.3,2.3,85,0.00,CLR,,0.00,WeatherDisplay:10.37,2013-05-29 11:01:00,
2013-05-29 12:06:00,53.6,49.5,29.66,SW,226,2.0,2.0,86,0.00,CLR,,0.00,WeatherDisplay:10.37,2013-05-29 11:06:00,
2013-05-29 12:11:00,53.3,49.5,29.67,West,269,1.1,1.1,87,0.00,CLR,,0.00,WeatherDisplay:10.37,2013-05-29 11:11:00,
2013-05-29 12:16:00,53.0,49.5,29.67,NNW,335,1.1,0.0,88,0.00,CLR,,0.00,WeatherDisplay:10.37,2013-05-29 11:16:00,
2013-05-29 12:21:00,52.8,49.6,29.67,NNW,344,1.1,1.1,89,0.00,CLR,,0.00,WeatherDisplay:10.37,2013-05-29 11:21:00,
2013-05-29 12:26:00,52.6,49.8,29.67,WSW,256,2.3,2.3,90,0.00,CLR,,0.00,WeatherDisplay:10.37,2013-05-29 11:26:00,
2013-05-29 12:31:00,52.3,49.5,29.67,East,84,3.5,3.5,90,0.00,CLR,,0.00,WeatherDisplay:10.37,2013-05-29 11:31:00,
2013-05-29 12:36:00,52.1,49.6,29.67,East,101,2.3,2.3,91,0.00,CLR,,0.00,WeatherDisplay:10.37,2013-05-29 11:36:00,
2013-05-29 12:41:00,51.8,49.3,29.67,WNW,300,2.3,2.3,91,0.00,CLR,,0.00,WeatherDisplay:10.37,2013-05-29 11:41:00,
2013-05-29 12:46:00,51.6,49.4,29.67,NW,309,2.3,2.3,92,0.00,CLR,,0.00,WeatherDisplay:10.37,2013-05-29 11:46:00,
2013-05-29 12:51:00,51.5,49.3,29.67,ENE,72,0.0,0.2,92,0.00,CLR,,0.00,WeatherDisplay:10.37,2013-05-29 11:51:00,
2013-05-29 12:56:00,51.5,49.3,29.67,NNE,17,1.1,1.1,92,0.00,CLR,,0.00,WeatherDisplay:10.37,2013-05-29 11:56:00,
2013-05-29 13:01:00,51.3,49.1,29.68,SW,218,0.0,0.0,92,0.00,CLR,,0.00,WeatherDisplay:10.37,2013-05-29 12:01:00,
2013-05-29 13:06:00,51.2,49.0,29.68,WNW,302,3.5,3.5,92,0.00,CLR,,0.00,WeatherDisplay:10.37,2013-05-29 12:06:00,
2013-05-29 13:11:00,51.2,49.0,29.68,NNW,334,1.1,1.1,92,0.00,CLR,,0.00,WeatherDisplay:10.37,2013-05-29 12:11:00,
2013-05-29 13:16:00,51.2,49.0,29.68,NW,318,1.1,1.1,92,0.00,CLR,,0.00,WeatherDisplay:10.37,2013-05-29 12:16:00,
2013-05-29 13:21:00,51.2,49.0,29.68,NE,54,3.5,3.5,92,0.00,CLR,,0.00,WeatherDisplay:10.37,2013-05-29 12:21:00,
2013-05-29 13:26:00,51.2,49.0,29.68,West,262,2.3,2.3,92,0.00,CLR,,0.00,WeatherDisplay:10.37,2013-05-29 12:26:00,
2013-05-29 13:31:00,51.1,48.9,29.68,West,270,1.1,0.0,92,0.00,CLR,,0.00,WeatherDisplay:10.37,2013-05-29 12:31:00,
2013-05-29 13:36:00,51.2,49.0,29.68,SW,226,0.0,0.0,92,0.00,CLR,,0.00,WeatherDisplay:10.37,2013-05-29 12:36:00,
2013-05-29 13:41:00,51.2,49.0,29.68,West,260,2.3,2.3,92,0.00,CLR,,0.00,WeatherDisplay:10.37,2013-05-29 12:41:00,
2013-05-29 13:46:00,51.3,49.1,29.68,WNW,294,3.5,3.5,92,0.00,CLR,,0.00,WeatherDisplay:10.37,2013-05-29 12:46:00,
2013-05-29 13:51:00,51.4,49.2,29.68,NNW,327,1.1,0.0,92,0.00,CLR,,0.00,WeatherDisplay:10.37,2013-05-29 12:51:00,
2013-05-29 13:56:00,51.3,49.1,29.68,West,267,2.3,2.3,92,0.00,CLR,,0.01,WeatherDisplay:10.37,2013-05-29 12:56:00,
2013-05-29 14:01:00,51.2,49.0,29.68,West,262,2.0,2.0,92,0.01,RA,,0.01,WeatherDisplay:10.37,2013-05-29 13:01:00,
2013-05-29 14:06:00,51.4,49.4,29.68,WSW,245,0.0,0.0,93,0.01,RA,,0.01,WeatherDisplay:10.37,2013-05-29 13:06:00,
2013-05-29 14:11:00,51.4,49.4,29.68,WSW,248,0.0,0.0,93,0.01,CLR,,0.01,WeatherDisplay:10.37,2013-05-29 13:11:00,
2013-05-29 14:16:00,51.4,49.2,29.68,East,83,1.1,0.0,92,0.01,CLR,,0.01,WeatherDisplay:10.37,2013-05-29 13:16:00,
2013-05-29 14:21:00,51.4,49.4,29.68,SW,235,1.1,0.0,93,0.01,CLR,,0.01,WeatherDisplay:10.37,2013-05-29 13:21:00,
2013-05-29 14:26:00,51.4,49.2,29.68,West,263,1.1,1.1,92,0.01,CLR,,0.01,WeatherDisplay:10.37,2013-05-29 13:26:00,
2013-05-29 14:31:00,51.5,49.3,29.68,South,186,2.3,2.3,92,0.01,CLR,,0.01,WeatherDisplay:10.37,2013-05-29 13:31:00,
2013-05-29 14:36:00,51.5,49.3,29.68,West,270,3.5,3.5,92,0.01,CLR,,0.01,WeatherDisplay:10.37,2013-05-29 13:36:00,
2013-05-29 14:41:00,51.8,49.5,29.68,WSW,256,3.0,3.0,92,0.01,CLR,,0.01,WeatherDisplay:10.37,2013-05-29 13:41:00,
2013-05-29 14:46:00,52.2,49.9,29.68,WSW,243,3.5,3.5,92,0.01,CLR,,0.01,WeatherDisplay:10.37,2013-05-29 13:46:00,
2013-05-29 14:51:00,52.5,49.9,29.68,WNW,296,4.0,4.0,91,0.01,CLR,,0.01,WeatherDisplay:10.37,2013-05-29 13:51:00,
2013-05-29 14:56:00,52.8,49.9,29.68,NE,47,2.3,2.3,90,0.01,CLR,,0.01,WeatherDisplay:10.37,2013-05-29 13:56:00,
2013-05-29 15:01:00,53.3,50.7,29.68,SE,125,1.1,0.0,91,0.00,CLR,,0.01,WeatherDisplay:10.37,2013-05-29 14:01:00,
2013-05-29 15:06:00,53.6,50.4,29.68,NNW,327,2.0,2.0,89,0.00,CLR,,0.01,WeatherDisplay:10.37,2013-05-29 14:06:00,
2013-05-29 15:11:00,53.8,50.6,29.68,WSW,248,3.5,3.5,89,0.00,CLR,,0.01,WeatherDisplay:10.37,2013-05-29 14:11:00,
2013-05-29 15:16:00,54.1,50.6,29.68,West,281,1.1,1.1,88,0.00,CLR,,0.01,WeatherDisplay:10.37,2013-05-29 14:16:00,
2013-05-29 15:21:00,54.4,50.9,29.68,East,92,1.1,1.1,88,0.00,CLR,,0.01,WeatherDisplay:10.37,2013-05-29 14:21:00,
2013-05-29 15:26:00,54.4,50.6,29.68,SW,226,3.5,3.5,87,0.00,CLR,,0.01,WeatherDisplay:10.37,2013-05-29 14:26:00,
2013-05-29 15:31:00,54.5,50.7,29.68,WNW,285,1.1,1.1,87,0.00,CLR,,0.01,WeatherDisplay:10.37,2013-05-29 14:31:00,
2013-05-29 15:36:00,54.5,50.7,29.68,WNW,285,4.0,4.0,87,0.00,CLR,,0.01,WeatherDisplay:10.37,2013-05-29 14:36:00,
2013-05-29 15:41:00,54.6,50.8,29.68,West,265,1.1,1.1,87,0.00,CLR,,0.01,WeatherDisplay:10.37,2013-05-29 14:41:00,
2013-05-29 15:46:00,54.6,50.8,29.68,WSW,248,5.0,5.0,87,0.00,CLR,,0.01,WeatherDisplay:10.37,2013-05-29 14:46:00,
2013-05-29 15:51:00,54.5,50.7,29.68,West,259,1.1,1.1,87,0.00,CLR,,0.01,WeatherDisplay:10.37,2013-05-29 14:51:00,
2013-05-29 15:56:00,54.6,50.8,29.68,West,259,2.3,2.3,87,0.00,CLR,,0.01,WeatherDisplay:10.37,2013-05-29 14:56:00,
2013-05-29 16:01:00,54.6,51.1,29.68,West,278,1.1,1.1,88,0.00,CLR,,0.01,WeatherDisplay:10.37,2013-05-29 15:01:00,
2013-05-29 16:06:00,54.5,51.0,29.68,East,86,0.0,0.0,88,0.00,CLR,,0.01,WeatherDisplay:10.37,2013-05-29 15:06:00,
2013-05-29 16:11:00,54.5,51.0,29.68,WSW,253,1.1,1.1,88,0.00,CLR,,0.01,WeatherDisplay:10.37,2013-05-29 15:11:00,
2013-05-29 16:16:00,54.4,50.9,29.68,WSW,243,0.0,0.0,88,0.00,CLR,,0.01,WeatherDisplay:10.37,2013-05-29 15:16:00,
2013-05-29 16:21:00,54.4,50.9,29.68,West,262,1.1,1.1,88,0.00,CLR,,0.01,WeatherDisplay:10.37,2013-05-29 15:21:00,
2013-05-29 16:26:00,54.3,50.8,29.68,SW,233,1.1,1.1,88,0.00,CLR,,0.01,WeatherDisplay:10.37,2013-05-29 15:26:00,
2013-05-29 16:31:00,54.3,50.8,29.68,WSW,253,3.5,3.5,88,0.00,CLR,,0.01,WeatherDisplay:10.37,2013-05-29 15:31:00,
2013-05-29 16:36:00,54.2,50.7,29.68,WNW,289,5.8,5.8,88,0.00,CLR,,0.01,WeatherDisplay:10.37,2013-05-29 15:36:00,
2013-05-29 16:41:00,54.2,51.0,29.68,West,263,3.5,3.5,89,0.00,CLR,,0.01,WeatherDisplay:10.37,2013-05-29 15:41:00,
2013-05-29 16:46:00,54.1,51.2,29.68,West,276,1.1,1.1,90,0.00,CLR,,0.01,WeatherDisplay:10.37,2013-05-29 15:46:00,
2013-05-29 16:51:00,53.9,51.3,29.68,WSW,257,1.1,1.1,91,0.00,CLR,,0.01,WeatherDisplay:10.37,2013-05-29 15:51:00,
2013-05-29 16:56:00,53.8,51.2,29.68,SW,235,0.0,0.0,91,0.00,CLR,,0.01,WeatherDisplay:10.37,2013-05-29 15:56:00,
2013-05-29 17:01:00,53.7,51.4,29.68,West,264,3.5,3.5,92,0.00,CLR,,0.01,WeatherDisplay:10.37,2013-05-29 16:01:00,
2013-05-29 17:06:00,53.7,51.4,29.68,NW,316,1.0,1.0,92,0.01,RA,,0.02,WeatherDisplay:10.37,2013-05-29 16:06:00,
2013-05-29 17:11:00,53.7,51.4,29.68,West,259,2.3,2.3,92,0.01,RA,,0.02,WeatherDisplay:10.37,2013-05-29 16:11:00,
2013-05-29 17:16:00,53.7,51.4,29.68,West,259,1.1,1.1,92,0.01,,,0.02,WeatherDisplay:10.37,2013-05-29 16:16:00,
2013-05-29 17:21:00,53.7,51.7,29.68,WSW,238,3.5,3.5,93,0.01,CLR,,0.02,WeatherDisplay:10.37,2013-05-29 16:21:00,
2013-05-29 17:26:00,53.7,51.7,29.68,WSW,255,1.0,1.0,93,0.01,CLR,,0.02,WeatherDisplay:10.37,2013-05-29 16:26:00,
2013-05-29 17:31:00,53.8,51.8,29.68,ESE,109,3.5,3.5,93,0.01,CLR,,0.02,WeatherDisplay:10.37,2013-05-29 16:31:00,
2013-05-29 17:36:00,53.7,51.7,29.68,WSW,255,0.0,0.0,93,0.01,CLR,,0.02,WeatherDisplay:10.37,2013-05-29 16:36:00,
2013-05-29 17:41:00,53.7,51.7,29.68,WNW,285,2.3,2.3,93,0.01,CLR,,0.02,WeatherDisplay:10.37,2013-05-29 16:41:00,
2013-05-29 17:46:00,53.7,52.0,29.68,WSW,250,2.3,2.3,94,0.01,CLR,,0.02,WeatherDisplay:10.37,2013-05-29 16:46:00,
2013-05-29 17:51:00,53.8,52.1,29.68,West,277,2.0,2.0,94,0.01,CLR,,0.02,WeatherDisplay:10.37,2013-05-29 16:51:00,
2013-05-29 17:56:00,53.9,52.2,29.68,WSW,257,1.0,0.0,94,0.01,CLR,,0.02,WeatherDisplay:10.37,2013-05-29 16:56:00,
2013-05-29 18:01:00,54.0,52.3,29.69,WNW,300,3.5,3.5,94,0.01,CLR,,0.02,WeatherDisplay:10.37,2013-05-29 17:01:00,
2013-05-29 18:06:00,54.1,52.4,29.69,WNW,300,0.0,0.0,94,0.00,CLR,,0.02,WeatherDisplay:10.37,2013-05-29 17:06:00,
2013-05-29 18:11:00,54.1,52.4,29.69,WSW,243,2.3,2.3,94,0.00,CLR,,0.02,WeatherDisplay:10.37,2013-05-29 17:11:00,
2013-05-29 18:16:00,54.2,52.5,29.69,ENE,72,0.0,0.0,94,0.00,CLR,,0.02,WeatherDisplay:10.37,2013-05-29 17:16:00,
2013-05-29 18:21:00,54.3,52.6,29.69,East,95,0.0,0.0,94,0.00,CLR,,0.02,WeatherDisplay:10.37,2013-05-29 17:21:00,
2013-05-29 18:26:00,54.5,52.8,29.69,NNE,23,3.5,0.0,94,0.00,CLR,,0.02,WeatherDisplay:10.37,2013-05-29 17:26:00,
2013-05-29 18:31:00,54.5,52.8,29.69,NW,314,2.3,2.3,94,0.00,CLR,,0.02,WeatherDisplay:10.37,2013-05-29 17:31:00,
2013-05-29 18:36:00,54.5,52.8,29.70,NE,46,2.3,2.3,94,0.00,CLR,,0.02,WeatherDisplay:10.37,2013-05-29 17:36:00,
2013-05-29 18:41:00,54.5,52.5,29.70,NW,311,2.3,2.3,93,0.00,CLR,,0.02,WeatherDisplay:10.37,2013-05-29 17:41:00,
2013-05-29 18:46:00,54.6,52.6,29.70,East,81,1.1,0.0,93,0.00,CLR,,0.02,WeatherDisplay:10.37,2013-05-29 17:46:00,
2013-05-29 18:51:00,54.6,52.6,29.70,NW,314,1.0,1.0,93,0.00,CLR,,0.02,WeatherDisplay:10.37,2013-05-29 17:51:00,
2013-05-29 18:56:00,54.6,52.6,29.71,NW,309,0.0,0.0,93,0.01,RA,,0.02,WeatherDisplay:10.37,2013-05-29 17:56:00,
2013-05-29 19:01:00,54.6,52.6,29.71,NNW,333,2.3,2.3,93,0.01,RA,,0.02,WeatherDisplay:10.37,2013-05-29 18:01:00,
2013-05-29 19:06:00,54.6,52.6,29.71,NW,314,1.1,1.1,93,0.01,,,0.02,WeatherDisplay:10.37,2013-05-29 18:06:00,
2013-05-29 19:11:00,54.5,52.5,29.71,East,81,2.3,2.3,93,0.01,CLR,,0.02,WeatherDisplay:10.37,2013-05-29 18:11:00,
2013-05-29 19:16:00,54.5,52.5,29.71,ENE,67,1.1,1.1,93,0.01,CLR,,0.02,WeatherDisplay:10.37,2013-05-29 18:16:00,
2013-05-29 19:21:00,54.5,52.5,29.71,NNE,32,0.0,0.0,93,0.01,CLR,,0.02,WeatherDisplay:10.37,2013-05-29 18:21:00,
2013-05-29 19:26:00,54.4,52.4,29.72,NW,318,2.3,2.3,93,0.01,CLR,,0.02,WeatherDisplay:10.37,2013-05-29 18:26:00,
2013-05-29 19:31:00,54.4,52.4,29.72,ENE,67,2.3,2.3,93,0.01,CLR,,0.02,WeatherDisplay:10.37,2013-05-29 18:31:00,
2013-05-29 19:36:00,54.4,52.4,29.72,SE,130,3.5,3.5,93,0.01,CLR,,0.02,WeatherDisplay:10.37,2013-05-29 18:36:00,
2013-05-29 19:41:00,54.3,52.3,29.72,ENE,57,0.0,0.1,93,0.01,CLR,,0.02,WeatherDisplay:10.37,2013-05-29 18:41:00,
2013-05-29 19:46:00,54.3,52.3,29.72,ESE,102,3.5,3.5,93,0.01,CLR,,0.02,WeatherDisplay:10.37,2013-05-29 18:46:00,
2013-05-29 19:51:00,54.3,52.0,29.72,NNE,33,1.1,1.1,92,0.01,CLR,,0.02,WeatherDisplay:10.37,2013-05-29 18:51:00,
2013-05-29 19:56:00,54.3,52.0,29.72,NNW,337,1.1,1.1,92,0.00,CLR,,0.02,WeatherDisplay:10.37,2013-05-29 18:56:00,
2013-05-29 20:01:00,54.3,52.0,29.72,East,84,0.0,0.0,92,0.00,CLR,,0.02,WeatherDisplay:10.37,2013-05-29 19:01:00,
2013-05-29 20:06:00,54.3,52.0,29.72,East,92,0.0,0.0,92,0.00,CLR,,0.02,WeatherDisplay:10.37,2013-05-29 19:06:00,
2013-05-29 20:11:00,54.3,52.0,29.72,ENE,65,1.1,1.1,92,0.00,CLR,,0.02,WeatherDisplay:10.37,2013-05-29 19:11:00,
2013-05-29 20:16:00,54.3,52.0,29.73,SW,214,1.1,1.1,92,0.00,CLR,,0.02,WeatherDisplay:10.37,2013-05-29 19:16:00,
2013-05-29 20:21:00,54.4,52.1,29.73,WNW,283,1.1,1.1,92,0.00,CLR,,0.02,WeatherDisplay:10.37,2013-05-29 19:21:00,
2013-05-29 20:26:00,54.3,52.0,29.73,NNE,15,3.5,3.5,92,0.00,CLR,,0.02,WeatherDisplay:10.37,2013-05-29 19:26:00,
2013-05-29 20:31:00,54.3,52.0,29.73,NNE,13,0.0,0.0,92,0.00,CLR,,0.02,WeatherDisplay:10.37,2013-05-29 19:31:00,
2013-05-29 20:36:00,54.2,51.9,29.73,North,11,0.0,0.0,92,0.00,CLR,,0.02,WeatherDisplay:10.37,2013-05-29 19:36:00,
2013-05-29 20:41:00,54.1,51.5,29.74,WNW,290,2.3,2.3,91,0.00,CLR,,0.02,WeatherDisplay:10.37,2013-05-29 19:41:00,
2013-05-29 20:46:00,54.1,51.5,29.74,NE,44,1.1,0.0,91,0.00,CLR,,0.02,WeatherDisplay:10.37,2013-05-29 19:46:00,
2013-05-29 20:51:00,54.1,51.5,29.74,East,96,3.5,3.5,91,0.00,CLR,,0.02,WeatherDisplay:10.37,2013-05-29 19:51:00,
2013-05-29 20:56:00,54.0,51.4,29.74,SSE,158,2.3,2.3,91,0.00,CLR,,0.02,WeatherDisplay:10.37,2013-05-29 19:56:00,
2013-05-29 21:01:00,53.9,51.3,29.74,ESE,117,0.0,0.0,91,0.00,CLR,,0.02,WeatherDisplay:10.37,2013-05-29 20:01:00,
2013-05-29 21:06:00,53.8,51.2,29.74,ESE,108,2.3,2.3,91,0.00,CLR,,0.02,WeatherDisplay:10.37,2013-05-29 20:06:00,
2013-05-29 21:11:00,53.7,51.1,29.75,East,98,1.0,1.0,91,0.00,CLR,,0.02,WeatherDisplay:10.37,2013-05-29 20:11:00,
2013-05-29 21:16:00,53.6,51.3,29.75,North,351,1.1,0.0,92,0.00,CLR,,0.02,WeatherDisplay:10.37,2013-05-29 20:16:00,
2013-05-29 21:21:00,53.4,51.1,29.75,SSE,163,0.0,0.0,92,0.00,CLR,,0.02,WeatherDisplay:10.37,2013-05-29 20:21:00,
2013-05-29 21:26:00,53.3,51.0,29.75,NNE,30,2.3,2.3,92,0.00,CLR,,0.02,WeatherDisplay:10.37,2013-05-29 20:26:00,
2013-05-29 21:31:00,53.2,50.9,29.75,NNE,32,0.0,0.0,92,0.00,CLR,,0.02,WeatherDisplay:10.37,2013-05-29 20:31:00,
2013-05-29 21:36:00,53.2,50.9,29.75,NE,41,1.0,1.0,92,0.00,CLR,,0.02,WeatherDisplay:10.37,2013-05-29 20:36:00,
2013-05-29 21:41:00,53.1,51.1,29.75,NE,41,1.1,1.1,93,0.00,CLR,,0.02,WeatherDisplay:10.37,2013-05-29 20:41:00,
2013-05-29 21:46:00,53.0,51.0,29.75,NE,52,0.0,0.0,93,0.00,CLR,,0.02,WeatherDisplay:10.37,2013-05-29 20:46:00,
2013-05-29 21:51:00,53.0,51.0,29.75,NE,36,0.0,0.0,93,0.00,CLR,,0.02,WeatherDisplay:10.37,2013-05-29 20:51:00,
2013-05-29 21:56:00,52.9,50.9,29.75,ENE,70,1.1,1.1,93,0.00,CLR,,0.02,WeatherDisplay:10.37,2013-05-29 20:56:00,
2013-05-29 22:01:00,52.9,50.9,29.75,East,86,0.0,0.0,93,0.00,CLR,,0.02,WeatherDisplay:10.37,2013-05-29 21:01:00,
2013-05-29 22:06:00,52.8,50.8,29.75,East,86,0.0,0.0,93,0.00,CLR,,0.02,WeatherDisplay:10.37,2013-05-29 21:06:00,
2013-05-29 22:11:00,52.7,50.7,29.76,East,86,0.0,0.0,93,0.00,CLR,,0.02,WeatherDisplay:10.37,2013-05-29 21:11:00,
2013-05-29 22:16:00,52.5,50.5,29.75,East,86,0.0,0.0,93,0.00,CLR,,0.02,WeatherDisplay:10.37,2013-05-29 21:16:00,
2013-05-29 22:21:00,52.4,50.7,29.76,WSW,242,1.1,1.1,94,0.00,CLR,,0.02,WeatherDisplay:10.37,2013-05-29 21:21:00,
2013-05-29 22:26:00,52.3,50.6,29.76,WSW,242,1.1,0.0,94,0.00,CLR,,0.02,WeatherDisplay:10.37,2013-05-29 21:26:00,
2013-05-29 22:31:00,52.3,50.6,29.75,ENE,77,0.0,0.0,94,0.00,CLR,,0.02,WeatherDisplay:10.37,2013-05-29 21:31:00,
2013-05-29 22:36:00,52.3,50.6,29.76,ENE,77,0.0,0.0,94,0.00,CLR,,0.02,WeatherDisplay:10.37,2013-05-29 21:36:00,
2013-05-29 22:41:00,52.2,50.5,29.76,ENE,68,0.0,0.0,94,0.00,CLR,,0.02,WeatherDisplay:10.37,2013-05-29 21:41:00,
2013-05-29 22:46:00,52.1,50.4,29.76,ENE,68,0.0,0.0,94,0.00,CLR,,0.02,WeatherDisplay:10.37,2013-05-29 21:46:00,
2013-05-29 22:51:00,52.0,50.3,29.76,ENE,68,0.0,0.0,94,0.00,CLR,,0.02,WeatherDisplay:10.37,2013-05-29 21:51:00,
2013-05-29 22:56:00,51.9,50.2,29.76,ENE,68,0.0,0.0,94,0.00,CLR,,0.02,WeatherDisplay:10.37,2013-05-29 21:56:00,
2013-05-29 23:01:00,51.9,50.2,29.76,ENE,68,0.0,0.0,94,0.00,CLR,,0.02,WeatherDisplay:10.37,2013-05-29 22:01:00,
2013-05-29 23:06:00,52.0,50.6,29.76,ENE,68,0.0,0.0,95,0.00,CLR,,0.02,WeatherDisplay:10.37,2013-05-29 22:06:00,
2013-05-29 23:11:00,52.2,50.8,29.76,ENE,68,0.0,0.0,95,0.00,CLR,,0.02,WeatherDisplay:10.37,2013-05-29 22:11:00,
2013-05-29 23:16:00,52.2,50.8,29.76,ENE,68,0.0,0.0,95,0.00,CLR,,0.02,WeatherDisplay:10.37,2013-05-29 22:16:00,
2013-05-29 23:21:00,52.2,50.8,29.76,ENE,68,0.0,0.0,95,0.00,CLR,,0.02,WeatherDisplay:10.37,2013-05-29 22:21:00,
2013-05-29 23:26:00,52.3,50.9,29.76,SW,218,0.0,0.0,95,0.00,CLR,,0.02,WeatherDisplay:10.37,2013-05-29 22:26:00,
2013-05-29 23:31:00,52.4,51.0,29.76,SW,218,0.0,0.0,95,0.00,CLR,,0.02,WeatherDisplay:10.37,2013-05-29 22:31:00,
2013-05-29 23:36:00,52.4,51.0,29.76,SW,218,0.0,0.0,95,0.00,CLR,,0.02,WeatherDisplay:10.37,2013-05-29 22:36:00,
2013-05-29 23:41:00,52.4,51.0,29.76,SW,219,0.0,0.0,95,0.00,CLR,,0.02,WeatherDisplay:10.37,2013-05-29 22:41:00,
2013-05-29 23:46:00,52.6,51.2,29.76,SW,221,0.0,0.0,95,0.00,CLR,,0.02,WeatherDisplay:10.37,2013-05-29 22:46:00,
2013-05-29 23:51:00,52.6,51.2,29.76,WSW,257,0.0,0.0,95,0.00,CLR,,0.02,WeatherDisplay:10.37,2013-05-29 22:51:00,
2013-05-29 23:56:00,52.7,51.3,29.76,WSW,253,1.1,0.0,95,0.00,CLR,,0.02,WeatherDisplay:10.37,2013-05-29 22:56:00,